sensor_id;sensor_type;location;lat;lon;timestamp;P1;durP1;ratioP1;P2;durP2;ratioP2
21158;SDS011;10737;45.436;4.390;2023-11-22T00:02:40;12.45;;;11.00;;
21158;SDS011;10737;45.436;4.390;2023-11-22T00:07:43;15.10;;;10.90;;
21158;SDS011;10737;45.436;4.390;2023-11-22T00:12:47;12.38;;;11.10;;
21158;SDS011;10737;45.436;4.390;2023-11-22T00:17:51;13.13;;;10.65;;
21158;SDS011;10737;45.436;4.390;2023-11-22T00:22:55;13.00;;;10.75;;
21158;SDS011;10737;45.436;4.390;2023-11-22T00:28:00;12.23;;;10.75;;
21158;SDS011;10737;45.436;4.390;2023-11-22T00:33:04;11.90;;;10.70;;
21158;SDS011;10737;45.436;4.390;2023-11-22T00:38:08;12.07;;;10.75;;
21158;SDS011;10737;45.436;4.390;2023-11-22T00:43:11;12.95;;;11.65;;
21158;SDS011;10737;45.436;4.390;2023-11-22T00:48:15;12.30;;;11.10;;
21158;SDS011;10737;45.436;4.390;2023-11-22T00:53:19;13.00;;;11.48;;
21158;SDS011;10737;45.436;4.390;2023-11-22T00:58:41;11.95;;;10.68;;
21158;SDS011;10737;45.436;4.390;2023-11-22T01:03:46;13.43;;;11.23;;
21158;SDS011;10737;45.436;4.390;2023-11-22T01:08:50;11.98;;;10.18;;
21158;SDS011;10737;45.436;4.390;2023-11-22T01:13:54;11.07;;;10.00;;
21158;SDS011;10737;45.436;4.390;2023-11-22T01:18:58;13.05;;;11.65;;
21158;SDS011;10737;45.436;4.390;2023-11-22T01:24:03;11.45;;;10.35;;
21158;SDS011;10737;45.436;4.390;2023-11-22T01:29:06;11.98;;;10.77;;
21158;SDS011;10737;45.436;4.390;2023-11-22T01:34:11;15.27;;;11.18;;
21158;SDS011;10737;45.436;4.390;2023-11-22T01:39:14;12.57;;;11.30;;
21158;SDS011;10737;45.436;4.390;2023-11-22T01:44:35;11.35;;;9.85;;
21158;SDS011;10737;45.436;4.390;2023-11-22T01:49:40;11.68;;;10.50;;
21158;SDS011;10737;45.436;4.390;2023-11-22T01:54:43;12.38;;;10.98;;
21158;SDS011;10737;45.436;4.390;2023-11-22T01:59:47;11.52;;;10.40;;
21158;SDS011;10737;45.436;4.390;2023-11-22T02:04:51;13.27;;;10.57;;
21158;SDS011;10737;45.436;4.390;2023-11-22T02:09:54;11.85;;;10.75;;
21158;SDS011;10737;45.436;4.390;2023-11-22T02:14:57;13.45;;;10.35;;
21158;SDS011;10737;45.436;4.390;2023-11-22T02:20:21;12.55;;;10.82;;
21158;SDS011;10737;45.436;4.390;2023-11-22T02:25:25;12.70;;;11.25;;
21158;SDS011;10737;45.436;4.390;2023-11-22T02:30:28;11.63;;;10.50;;
21158;SDS011;10737;45.436;4.390;2023-11-22T02:35:31;10.90;;;9.80;;
21158;SDS011;10737;45.436;4.390;2023-11-22T02:40:36;11.43;;;10.43;;
21158;SDS011;10737;45.436;4.390;2023-11-22T02:45:58;11.65;;;10.55;;
21158;SDS011;10737;45.436;4.390;2023-11-22T02:51:01;11.70;;;10.48;;
21158;SDS011;10737;45.436;4.390;2023-11-22T02:56:06;11.65;;;10.10;;
21158;SDS011;10737;45.436;4.390;2023-11-22T03:01:09;11.85;;;10.65;;
21158;SDS011;10737;45.436;4.390;2023-11-22T03:06:12;13.38;;;10.88;;
21158;SDS011;10737;45.436;4.390;2023-11-22T03:11:18;12.85;;;10.23;;
21158;SDS011;10737;45.436;4.390;2023-11-22T03:16:22;11.77;;;10.57;;
21158;SDS011;10737;45.436;4.390;2023-11-22T03:21:26;14.13;;;12.38;;
21158;SDS011;10737;45.436;4.390;2023-11-22T03:26:31;14.80;;;12.48;;
21158;SDS011;10737;45.436;4.390;2023-11-22T03:31:34;14.15;;;12.65;;
21158;SDS011;10737;45.436;4.390;2023-11-22T03:36:37;16.60;;;12.70;;
21158;SDS011;10737;45.436;4.390;2023-11-22T03:41:44;14.50;;;11.70;;
21158;SDS011;10737;45.436;4.390;2023-11-22T03:46:47;14.25;;;12.88;;
21158;SDS011;10737;45.436;4.390;2023-11-22T03:52:09;13.35;;;12.00;;
21158;SDS011;10737;45.436;4.390;2023-11-22T03:57:14;15.85;;;12.45;;
21158;SDS011;10737;45.436;4.390;2023-11-22T04:02:38;14.27;;;12.13;;
21158;SDS011;10737;45.436;4.390;2023-11-22T04:07:42;14.25;;;12.63;;
21158;SDS011;10737;45.436;4.390;2023-11-22T04:12:47;14.25;;;12.75;;
21158;SDS011;10737;45.436;4.390;2023-11-22T04:17:50;17.25;;;13.50;;
21158;SDS011;10737;45.436;4.390;2023-11-22T04:22:56;17.40;;;14.27;;
21158;SDS011;10737;45.436;4.390;2023-11-22T04:28:19;15.43;;;13.63;;
21158;SDS011;10737;45.436;4.390;2023-11-22T04:33:23;15.50;;;13.85;;
21158;SDS011;10737;45.436;4.390;2023-11-22T04:38:26;15.88;;;13.80;;
21158;SDS011;10737;45.436;4.390;2023-11-22T04:43:31;15.13;;;13.63;;
21158;SDS011;10737;45.436;4.390;2023-11-22T04:48:34;15.07;;;13.18;;
21158;SDS011;10737;45.436;4.390;2023-11-22T04:53:38;19.23;;;14.48;;
21158;SDS011;10737;45.436;4.390;2023-11-22T04:58:43;18.00;;;14.57;;
21158;SDS011;10737;45.436;4.390;2023-11-22T05:03:47;16.83;;;14.77;;
21158;SDS011;10737;45.436;4.390;2023-11-22T05:08:50;15.63;;;14.13;;
21158;SDS011;10737;45.436;4.390;2023-11-22T05:13:55;17.00;;;14.40;;
21158;SDS011;10737;45.436;4.390;2023-11-22T05:18:58;23.60;;;15.75;;
21158;SDS011;10737;45.436;4.390;2023-11-22T05:24:01;21.27;;;17.48;;
21158;SDS011;10737;45.436;4.390;2023-11-22T05:29:06;18.17;;;14.57;;
21158;SDS011;10737;45.436;4.390;2023-11-22T05:34:09;19.38;;;16.40;;
21158;SDS011;10737;45.436;4.390;2023-11-22T05:39:30;20.48;;;16.52;;
21158;SDS011;10737;45.436;4.390;2023-11-22T05:44:54;18.38;;;14.95;;
21158;SDS011;10737;45.436;4.390;2023-11-22T05:49:57;22.48;;;16.20;;
21158;SDS011;10737;45.436;4.390;2023-11-22T05:55:18;18.33;;;15.65;;
21158;SDS011;10737;45.436;4.390;2023-11-22T06:00:23;19.13;;;16.33;;
21158;SDS011;10737;45.436;4.390;2023-11-22T06:05:26;18.73;;;15.40;;
21158;SDS011;10737;45.436;4.390;2023-11-22T06:10:29;18.02;;;16.10;;
21158;SDS011;10737;45.436;4.390;2023-11-22T06:15:52;17.98;;;16.13;;
21158;SDS011;10737;45.436;4.390;2023-11-22T06:20:55;18.30;;;15.75;;
21158;SDS011;10737;45.436;4.390;2023-11-22T06:25:59;20.55;;;16.08;;
21158;SDS011;10737;45.436;4.390;2023-11-22T06:31:03;19.83;;;15.45;;
21158;SDS011;10737;45.436;4.390;2023-11-22T06:36:07;21.27;;;15.63;;
21158;SDS011;10737;45.436;4.390;2023-11-22T06:41:11;17.90;;;15.15;;
21158;SDS011;10737;45.436;4.390;2023-11-22T06:46:16;20.42;;;15.77;;
21158;SDS011;10737;45.436;4.390;2023-11-22T06:51:38;17.80;;;15.30;;
21158;SDS011;10737;45.436;4.390;2023-11-22T06:56:41;18.75;;;15.82;;
21158;SDS011;10737;45.436;4.390;2023-11-22T07:01:45;21.83;;;15.82;;
21158;SDS011;10737;45.436;4.390;2023-11-22T07:06:48;17.23;;;15.43;;
21158;SDS011;10737;45.436;4.390;2023-11-22T07:11:52;18.25;;;14.68;;
21158;SDS011;10737;45.436;4.390;2023-11-22T07:16:56;19.98;;;15.35;;
21158;SDS011;10737;45.436;4.390;2023-11-22T07:22:00;17.85;;;15.35;;
21158;SDS011;10737;45.436;4.390;2023-11-22T07:27:06;19.20;;;15.23;;
21158;SDS011;10737;45.436;4.390;2023-11-22T07:32:11;15.40;;;13.90;;
21158;SDS011;10737;45.436;4.390;2023-11-22T07:37:33;22.58;;;16.60;;
21158;SDS011;10737;45.436;4.390;2023-11-22T07:42:37;19.15;;;14.68;;
21158;SDS011;10737;45.436;4.390;2023-11-22T07:47:42;21.98;;;15.50;;
21158;SDS011;10737;45.436;4.390;2023-11-22T07:52:45;16.90;;;14.57;;
21158;SDS011;10737;45.436;4.390;2023-11-22T07:57:50;19.90;;;15.15;;
21158;SDS011;10737;45.436;4.390;2023-11-22T08:02:56;21.77;;;15.88;;
21158;SDS011;10737;45.436;4.390;2023-11-22T08:07:59;19.45;;;14.35;;
21158;SDS011;10737;45.436;4.390;2023-11-22T08:13:03;18.63;;;15.27;;
21158;SDS011;10737;45.436;4.390;2023-11-22T08:18:08;16.67;;;14.88;;
21158;SDS011;10737;45.436;4.390;2023-11-22T08:23:12;19.98;;;14.27;;
21158;SDS011;10737;45.436;4.390;2023-11-22T08:28:16;15.63;;;13.77;;
21158;SDS011;10737;45.436;4.390;2023-11-22T08:33:21;15.15;;;13.55;;
21158;SDS011;10737;45.436;4.390;2023-11-22T08:38:25;19.73;;;13.93;;
21158;SDS011;10737;45.436;4.390;2023-11-22T08:43:28;19.88;;;14.95;;
21158;SDS011;10737;45.436;4.390;2023-11-22T08:48:35;15.50;;;14.00;;
21158;SDS011;10737;45.436;4.390;2023-11-22T08:53:39;15.48;;;13.25;;
21158;SDS011;10737;45.436;4.390;2023-11-22T08:58:42;13.30;;;12.00;;
21158;SDS011;10737;45.436;4.390;2023-11-22T09:04:06;12.18;;;9.85;;
21158;SDS011;10737;45.436;4.390;2023-11-22T09:09:10;10.93;;;9.82;;
21158;SDS011;10737;45.436;4.390;2023-11-22T09:14:17;10.18;;;9.25;;
21158;SDS011;10737;45.436;4.390;2023-11-22T09:19:23;9.85;;;8.93;;
21158;SDS011;10737;45.436;4.390;2023-11-22T09:24:27;9.95;;;9.05;;
21158;SDS011;10737;45.436;4.390;2023-11-22T09:29:30;10.35;;;9.35;;
21158;SDS011;10737;45.436;4.390;2023-11-22T09:34:35;12.73;;;11.50;;
21158;SDS011;10737;45.436;4.390;2023-11-22T09:39:38;9.88;;;8.95;;
21158;SDS011;10737;45.436;4.390;2023-11-22T09:44:42;10.25;;;9.35;;
21158;SDS011;10737;45.436;4.390;2023-11-22T09:49:46;10.07;;;9.15;;
21158;SDS011;10737;45.436;4.390;2023-11-22T09:54:53;9.68;;;8.77;;
21158;SDS011;10737;45.436;4.390;2023-11-22T09:59:57;9.98;;;8.55;;
21158;SDS011;10737;45.436;4.390;2023-11-22T10:05:02;9.43;;;8.40;;
21158;SDS011;10737;45.436;4.390;2023-11-22T10:10:06;10.20;;;9.25;;
21158;SDS011;10737;45.436;4.390;2023-11-22T10:15:13;9.30;;;8.50;;
21158;SDS011;10737;45.436;4.390;2023-11-22T10:20:17;8.88;;;8.18;;
21158;SDS011;10737;45.436;4.390;2023-11-22T10:25:21;8.73;;;7.95;;
21158;SDS011;10737;45.436;4.390;2023-11-22T10:30:25;8.68;;;7.82;;
21158;SDS011;10737;45.436;4.390;2023-11-22T10:35:32;10.35;;;9.45;;
21158;SDS011;10737;45.436;4.390;2023-11-22T10:40:35;9.82;;;8.93;;
21158;SDS011;10737;45.436;4.390;2023-11-22T10:45:40;8.85;;;8.02;;
21158;SDS011;10737;45.436;4.390;2023-11-22T10:50:48;9.25;;;8.27;;
21158;SDS011;10737;45.436;4.390;2023-11-22T10:55:56;11.07;;;8.70;;
21158;SDS011;10737;45.436;4.390;2023-11-22T11:01:01;7.43;;;6.88;;
21158;SDS011;10737;45.436;4.390;2023-11-22T11:06:10;9.27;;;8.43;;
21158;SDS011;10737;45.436;4.390;2023-11-22T11:11:16;8.50;;;7.65;;
21158;SDS011;10737;45.436;4.390;2023-11-22T11:16:20;7.60;;;6.95;;
21158;SDS011;10737;45.436;4.390;2023-11-22T11:21:26;6.70;;;6.30;;
21158;SDS011;10737;45.436;4.390;2023-11-22T11:26:31;7.18;;;6.53;;
21158;SDS011;10737;45.436;4.390;2023-11-22T11:31:38;7.38;;;6.72;;
21158;SDS011;10737;45.436;4.390;2023-11-22T11:36:44;12.18;;;8.30;;
21158;SDS011;10737;45.436;4.390;2023-11-22T11:42:13;11.57;;;7.82;;
21158;SDS011;10737;45.436;4.390;2023-11-22T11:47:35;6.90;;;6.50;;
21158;SDS011;10737;45.436;4.390;2023-11-22T11:52:40;6.47;;;5.78;;
21158;SDS011;10737;45.436;4.390;2023-11-22T11:57:43;6.93;;;6.32;;
21158;SDS011;10737;45.436;4.390;2023-11-22T12:02:48;6.85;;;6.35;;
21158;SDS011;10737;45.436;4.390;2023-11-22T12:08:11;9.32;;;7.93;;
21158;SDS011;10737;45.436;4.390;2023-11-22T12:13:17;7.28;;;6.68;;
21158;SDS011;10737;45.436;4.390;2023-11-22T12:18:21;6.88;;;6.38;;
21158;SDS011;10737;45.436;4.390;2023-11-22T12:23:26;8.13;;;7.32;;
21158;SDS011;10737;45.436;4.390;2023-11-22T12:28:30;5.40;;;5.00;;
21158;SDS011;10737;45.436;4.390;2023-11-22T12:33:34;6.22;;;5.63;;
21158;SDS011;10737;45.436;4.390;2023-11-22T12:38:40;5.10;;;4.70;;
21158;SDS011;10737;45.436;4.390;2023-11-22T12:43:43;5.25;;;4.95;;
21158;SDS011;10737;45.436;4.390;2023-11-22T12:48:47;5.22;;;4.93;;
21158;SDS011;10737;45.436;4.390;2023-11-22T12:53:51;5.13;;;4.82;;
21158;SDS011;10737;45.436;4.390;2023-11-22T12:58:55;5.75;;;5.45;;
21158;SDS011;10737;45.436;4.390;2023-11-22T13:03:58;6.35;;;5.43;;
21158;SDS011;10737;45.436;4.390;2023-11-22T13:09:02;4.47;;;4.28;;
21158;SDS011;10737;45.436;4.390;2023-11-22T13:14:06;5.57;;;5.18;;
21158;SDS011;10737;45.436;4.390;2023-11-22T13:19:09;4.72;;;4.53;;
21158;SDS011;10737;45.436;4.390;2023-11-22T13:24:14;6.00;;;5.60;;
21158;SDS011;10737;45.436;4.390;2023-11-22T13:29:19;5.20;;;4.90;;
21158;SDS011;10737;45.436;4.390;2023-11-22T13:34:22;4.80;;;4.50;;
21158;SDS011;10737;45.436;4.390;2023-11-22T13:39:28;4.80;;;4.50;;
21158;SDS011;10737;45.436;4.390;2023-11-22T13:44:35;5.63;;;5.22;;
21158;SDS011;10737;45.436;4.390;2023-11-22T13:49:38;6.38;;;5.95;;
21158;SDS011;10737;45.436;4.390;2023-11-22T13:54:43;5.10;;;4.70;;
21158;SDS011;10737;45.436;4.390;2023-11-22T13:59:46;12.82;;;11.25;;
21158;SDS011;10737;45.436;4.390;2023-11-22T14:04:49;5.93;;;5.32;;
21158;SDS011;10737;45.436;4.390;2023-11-22T14:09:55;5.90;;;5.50;;
21158;SDS011;10737;45.436;4.390;2023-11-22T14:14:59;6.18;;;5.78;;
21158;SDS011;10737;45.436;4.390;2023-11-22T14:20:02;5.72;;;5.32;;
21158;SDS011;10737;45.436;4.390;2023-11-22T14:25:08;8.68;;;7.78;;
21158;SDS011;10737;45.436;4.390;2023-11-22T14:30:31;6.25;;;5.70;;
21158;SDS011;10737;45.436;4.390;2023-11-22T14:35:37;5.82;;;5.43;;
21158;SDS011;10737;45.436;4.390;2023-11-22T14:40:42;5.13;;;4.82;;
21158;SDS011;10737;45.436;4.390;2023-11-22T14:46:04;5.88;;;5.38;;
21158;SDS011;10737;45.436;4.390;2023-11-22T14:51:08;5.85;;;5.43;;
21158;SDS011;10737;45.436;4.390;2023-11-22T14:56:13;5.95;;;5.35;;
21158;SDS011;10737;45.436;4.390;2023-11-22T15:01:16;6.13;;;5.53;;
21158;SDS011;10737;45.436;4.390;2023-11-22T15:06:19;5.13;;;4.82;;
21158;SDS011;10737;45.436;4.390;2023-11-22T15:11:24;7.50;;;6.93;;
21158;SDS011;10737;45.436;4.390;2023-11-22T15:16:27;4.85;;;4.45;;
21158;SDS011;10737;45.436;4.390;2023-11-22T15:21:30;5.18;;;4.88;;
21158;SDS011;10737;45.436;4.390;2023-11-22T15:26:35;4.45;;;4.15;;
21158;SDS011;10737;45.436;4.390;2023-11-22T15:31:38;5.60;;;5.18;;
21158;SDS011;10737;45.436;4.390;2023-11-22T15:36:42;4.55;;;4.25;;
21158;SDS011;10737;45.436;4.390;2023-11-22T15:41:49;4.75;;;4.35;;
21158;SDS011;10737;45.436;4.390;2023-11-22T15:46:53;5.32;;;4.95;;
21158;SDS011;10737;45.436;4.390;2023-11-22T15:51:56;4.95;;;4.65;;
21158;SDS011;10737;45.436;4.390;2023-11-22T15:57:00;6.45;;;5.90;;
21158;SDS011;10737;45.436;4.390;2023-11-22T16:02:22;6.75;;;6.15;;
21158;SDS011;10737;45.436;4.390;2023-11-22T16:07:25;6.57;;;6.07;;
21158;SDS011;10737;45.436;4.390;2023-11-22T16:12:30;5.68;;;5.20;;
21158;SDS011;10737;45.436;4.390;2023-11-22T16:17:34;23.15;;;16.98;;
21158;SDS011;10737;45.436;4.390;2023-11-22T16:22:38;6.57;;;6.05;;
21158;SDS011;10737;45.436;4.390;2023-11-22T16:27:43;17.65;;;14.63;;
21158;SDS011;10737;45.436;4.390;2023-11-22T16:32:47;6.60;;;6.10;;
21158;SDS011;10737;45.436;4.390;2023-11-22T16:37:50;5.38;;;5.03;;
21158;SDS011;10737;45.436;4.390;2023-11-22T16:42:55;5.18;;;4.78;;
21158;SDS011;10737;45.436;4.390;2023-11-22T16:47:59;10.70;;;7.10;;
21158;SDS011;10737;45.436;4.390;2023-11-22T16:53:02;11.30;;;9.52;;
21158;SDS011;10737;45.436;4.390;2023-11-22T16:58:06;11.38;;;9.65;;
21158;SDS011;10737;45.436;4.390;2023-11-22T17:03:10;6.25;;;5.80;;
21158;SDS011;10737;45.436;4.390;2023-11-22T17:08:14;5.15;;;4.75;;
21158;SDS011;10737;45.436;4.390;2023-11-22T17:13:19;7.40;;;6.60;;
21158;SDS011;10737;45.436;4.390;2023-11-22T17:18:23;7.75;;;6.68;;
21158;SDS011;10737;45.436;4.390;2023-11-22T17:23:44;6.55;;;6.05;;
21158;SDS011;10737;45.436;4.390;2023-11-22T17:28:49;9.60;;;8.48;;
21158;SDS011;10737;45.436;4.390;2023-11-22T17:33:52;6.20;;;5.70;;
21158;SDS011;10737;45.436;4.390;2023-11-22T17:38:56;5.43;;;5.10;;
21158;SDS011;10737;45.436;4.390;2023-11-22T17:44:01;7.47;;;6.85;;
21158;SDS011;10737;45.436;4.390;2023-11-22T17:49:04;6.88;;;5.53;;
21158;SDS011;10737;45.436;4.390;2023-11-22T17:54:07;6.18;;;5.68;;
21158;SDS011;10737;45.436;4.390;2023-11-22T17:59:12;7.68;;;6.97;;
21158;SDS011;10737;45.436;4.390;2023-11-22T18:04:15;7.32;;;6.53;;
21158;SDS011;10737;45.436;4.390;2023-11-22T18:09:19;10.35;;;9.35;;
21158;SDS011;10737;45.436;4.390;2023-11-22T18:14:24;10.25;;;8.50;;
21158;SDS011;10737;45.436;4.390;2023-11-22T18:19:28;11.38;;;9.25;;
21158;SDS011;10737;45.436;4.390;2023-11-22T18:24:50;10.32;;;9.07;;
21158;SDS011;10737;45.436;4.390;2023-11-22T18:29:54;7.13;;;6.47;;
21158;SDS011;10737;45.436;4.390;2023-11-22T18:34:58;7.95;;;7.35;;
21158;SDS011;10737;45.436;4.390;2023-11-22T18:40:01;9.63;;;8.73;;
21158;SDS011;10737;45.436;4.390;2023-11-22T18:45:07;9.50;;;8.50;;
21158;SDS011;10737;45.436;4.390;2023-11-22T18:50:13;8.07;;;7.18;;
21158;SDS011;10737;45.436;4.390;2023-11-22T18:55:17;10.23;;;9.15;;
21158;SDS011;10737;45.436;4.390;2023-11-22T19:00:22;7.65;;;6.85;;
21158;SDS011;10737;45.436;4.390;2023-11-22T19:05:44;12.32;;;9.95;;
21158;SDS011;10737;45.436;4.390;2023-11-22T19:11:06;9.25;;;8.07;;
21158;SDS011;10737;45.436;4.390;2023-11-22T19:16:10;8.20;;;7.43;;
21158;SDS011;10737;45.436;4.390;2023-11-22T19:21:16;15.00;;;12.05;;
21158;SDS011;10737;45.436;4.390;2023-11-22T19:26:20;20.58;;;15.80;;
21158;SDS011;10737;45.436;4.390;2023-11-22T19:31:25;7.40;;;6.70;;
21158;SDS011;10737;45.436;4.390;2023-11-22T19:36:28;11.93;;;7.68;;
21158;SDS011;10737;45.436;4.390;2023-11-22T19:41:33;9.82;;;7.13;;
21158;SDS011;10737;45.436;4.390;2023-11-22T19:46:39;9.20;;;7.75;;
21158;SDS011;10737;45.436;4.390;2023-11-22T19:51:43;16.38;;;11.35;;
21158;SDS011;10737;45.436;4.390;2023-11-22T19:57:05;11.02;;;8.60;;
21158;SDS011;10737;45.436;4.390;2023-11-22T20:02:12;7.78;;;6.88;;
21158;SDS011;10737;45.436;4.390;2023-11-22T20:07:15;8.65;;;7.43;;
21158;SDS011;10737;45.436;4.390;2023-11-22T20:12:18;8.07;;;7.38;;
21158;SDS011;10737;45.436;4.390;2023-11-22T20:17:23;7.68;;;6.90;;
21158;SDS011;10737;45.436;4.390;2023-11-22T20:22:27;11.98;;;9.48;;
21158;SDS011;10737;45.436;4.390;2023-11-22T20:27:31;11.02;;;9.20;;
21158;SDS011;10737;45.436;4.390;2023-11-22T20:32:36;8.27;;;7.55;;
21158;SDS011;10737;45.436;4.390;2023-11-22T20:37:40;11.52;;;8.55;;
21158;SDS011;10737;45.436;4.390;2023-11-22T20:42:43;9.30;;;8.10;;
21158;SDS011;10737;45.436;4.390;2023-11-22T20:47:48;10.30;;;9.30;;
21158;SDS011;10737;45.436;4.390;2023-11-22T20:52:52;9.55;;;8.55;;
21158;SDS011;10737;45.436;4.390;2023-11-22T20:57:56;38.58;;;25.48;;
21158;SDS011;10737;45.436;4.390;2023-11-22T21:03:20;10.35;;;9.13;;
21158;SDS011;10737;45.436;4.390;2023-11-22T21:08:23;9.95;;;8.45;;
21158;SDS011;10737;45.436;4.390;2023-11-22T21:13:26;20.77;;;15.43;;
21158;SDS011;10737;45.436;4.390;2023-11-22T21:18:50;9.65;;;8.52;;
21158;SDS011;10737;45.436;4.390;2023-11-22T21:23:53;12.93;;;9.43;;
21158;SDS011;10737;45.436;4.390;2023-11-22T21:28:58;9.50;;;8.38;;
21158;SDS011;10737;45.436;4.390;2023-11-22T21:34:02;8.75;;;7.90;;
21158;SDS011;10737;45.436;4.390;2023-11-22T21:39:06;13.73;;;9.40;;
21158;SDS011;10737;45.436;4.390;2023-11-22T21:44:13;10.13;;;8.55;;
21158;SDS011;10737;45.436;4.390;2023-11-22T21:49:18;8.68;;;6.72;;
21158;SDS011;10737;45.436;4.390;2023-11-22T21:54:21;10.43;;;8.13;;
21158;SDS011;10737;45.436;4.390;2023-11-22T21:59:24;7.53;;;6.25;;
21158;SDS011;10737;45.436;4.390;2023-11-22T22:04:29;13.93;;;9.15;;
21158;SDS011;10737;45.436;4.390;2023-11-22T22:09:32;8.15;;;7.35;;
21158;SDS011;10737;45.436;4.390;2023-11-22T22:14:39;8.32;;;6.78;;
21158;SDS011;10737;45.436;4.390;2023-11-22T22:19:45;10.27;;;6.68;;
21158;SDS011;10737;45.436;4.390;2023-11-22T22:24:48;13.70;;;11.50;;
21158;SDS011;10737;45.436;4.390;2023-11-22T22:29:51;9.02;;;7.63;;
21158;SDS011;10737;45.436;4.390;2023-11-22T22:35:14;11.32;;;7.55;;
21158;SDS011;10737;45.436;4.390;2023-11-22T22:40:17;10.45;;;8.88;;
21158;SDS011;10737;45.436;4.390;2023-11-22T22:45:22;7.47;;;6.78;;
21158;SDS011;10737;45.436;4.390;2023-11-22T22:50:27;8.50;;;7.65;;
21158;SDS011;10737;45.436;4.390;2023-11-22T22:55:30;7.75;;;7.05;;
21158;SDS011;10737;45.436;4.390;2023-11-22T23:00:33;11.63;;;10.15;;
21158;SDS011;10737;45.436;4.390;2023-11-22T23:05:43;10.32;;;7.95;;
21158;SDS011;10737;45.436;4.390;2023-11-22T23:10:46;8.23;;;7.15;;
21158;SDS011;10737;45.436;4.390;2023-11-22T23:15:49;9.63;;;7.82;;
21158;SDS011;10737;45.436;4.390;2023-11-22T23:20:54;18.77;;;13.13;;
21158;SDS011;10737;45.436;4.390;2023-11-22T23:25:57;9.40;;;8.50;;
21158;SDS011;10737;45.436;4.390;2023-11-22T23:31:01;8.07;;;7.22;;
21158;SDS011;10737;45.436;4.390;2023-11-22T23:36:08;8.32;;;7.32;;
21158;SDS011;10737;45.436;4.390;2023-11-22T23:41:12;7.47;;;6.75;;
21158;SDS011;10737;45.436;4.390;2023-11-22T23:46:16;7.43;;;6.72;;
21158;SDS011;10737;45.436;4.390;2023-11-22T23:51:20;8.38;;;7.35;;
21158;SDS011;10737;45.436;4.390;2023-11-22T23:56:23;9.65;;;8.65;;
